Time;durP1;ratioP1;P1;durP2;ratioP2;P2;SDS_P1;SDS_P2;PMS_P1;PMS_P2;Temp;Humidity;BMP_temperature;BMP_pressure;BME280_temperature;BME280_humidity;BME280_pressure;Samples;Min_cycle;Max_cycle;Signal;HPM_P1;HPM_P2
2024/02/25 00:00:03;;;;;;;1.77;1.13;;;;;;;;;;478092;28;1243;-72
2024/02/25 00:00:19;;;;;;;2.05;1.10;;;;;;;;;;480011;28;1455;-72
2024/02/25 00:00:34;;;;;;;2.20;1.13;;;;;;;;;;481168;28;1383;-72
2024/02/25 00:00:51;;;;;;;2.20;1.10;;;;;;;;;;479933;28;1291;-72
2024/02/25 00:01:08;;;;;;;2.28;1.10;;;;;;;;;;479479;28;987;-72
2024/02/25 00:01:23;;;;;;;2.15;1.10;;;;;;;;;;479512;28;1055;-71
2024/02/25 00:01:40;;;;;;;2.38;1.27;;;;;;;;;;481587;28;1344;-71
2024/02/25 00:02:00;;;;;;;2.03;1.20;;;;;;;;;;479712;28;1413;-72
2024/02/25 00:02:19;;;;;;;1.85;1.10;;;;;;;;;;478886;28;1292;-72
2024/02/25 00:02:35;;;;;;;2.17;1.25;;;;;;;;;;478947;28;1415;-71
2024/02/25 00:02:51;;;;;;;1.97;1.20;;;;;;;;;;481060;28;1146;-71
2024/02/25 00:03:07;;;;;;;2.13;1.10;;;;;;;;;;477489;28;1106;-72
2024/02/25 00:03:23;;;;;;;2.33;1.10;;;;;;;;;;478074;28;1422;-72
2024/02/25 00:03:39;;;;;;;2.03;1.10;;;;;;;;;;478892;28;1239;-72
2024/02/25 00:03:55;;;;;;;2.05;1.10;;;;;;;;;;479483;28;1257;-72
2024/02/25 00:04:12;;;;;;;1.65;1.13;;;;;;;;;;479586;28;1291;-72
2024/02/25 00:04:29;;;;;;;1.75;1.15;;;;;;;;;;477696;28;1551;-72
2024/02/25 00:04:45;;;;;;;3.40;1.33;;;;;;;;;;478023;28;1087;-72
2024/02/25 00:05:01;;;;;;;3.30;1.40;;;;;;;;;;475655;28;1730;-72
2024/02/25 00:05:17;;;;;;;1.80;1.02;;;;;;;;;;479009;28;1258;-72
2024/02/25 00:05:34;;;;;;;1.70;1.10;;;;;;;;;;478953;28;1254;-72
2024/02/25 00:05:51;;;;;;;1.95;1.05;;;;;;;;;;478617;28;1393;-73
2024/02/25 00:06:07;;;;;;;2.25;0.98;;;;;;;;;;478132;28;1968;-72
2024/02/25 00:06:23;;;;;;;2.00;1.00;;;;;;;;;;477994;28;1111;-72
2024/02/25 00:06:44;;;;;;;1.95;1.10;;;;;;;;;;483657;28;1307;-72
2024/02/25 00:07:04;;;;;;;2.72;1.20;;;;;;;;;;480408;28;1387;-72
2024/02/25 00:07:21;;;;;;;2.58;1.10;;;;;;;;;;480249;28;1112;-72
2024/02/25 00:07:37;;;;;;;2.10;1.10;;;;;;;;;;484263;28;1181;-72
2024/02/25 00:07:57;;;;;;;2.10;1.02;;;;;;;;;;481208;28;1042;-72
2024/02/25 00:08:17;;;;;;;1.98;1.05;;;;;;;;;;479315;28;1078;-72
2024/02/25 00:08:33;;;;;;;1.70;1.00;;;;;;;;;;477968;28;1464;-72
2024/02/25 00:08:49;;;;;;;1.75;1.10;;;;;;;;;;478344;28;944;-71
2024/02/25 00:09:05;;;;;;;1.80;1.08;;;;;;;;;;479388;28;900;-71
2024/02/25 00:09:25;;;;;;;1.73;1.00;;;;;;;;;;477151;28;1204;-72
2024/02/25 00:09:41;;;;;;;2.53;1.20;;;;;;;;;;481269;28;1232;-73
2024/02/25 00:09:57;;;;;;;1.92;1.15;;;;;;;;;;481778;28;1212;-72
2024/02/25 00:10:17;;;;;;;1.85;1.00;;;;;;;;;;480117;28;1328;-72
2024/02/25 00:10:33;;;;;;;2.95;1.10;;;;;;;;;;481760;28;1437;-73
2024/02/25 00:10:48;;;;;;;2.95;1.15;;;;;;;;;;481611;28;1272;-71
2024/02/25 00:11:05;;;;;;;1.73;1.00;;;;;;;;;;481023;28;1283;-72
2024/02/25 00:11:25;;;;;;;1.75;1.00;;;;;;;;;;481461;28;1624;-72
2024/02/25 00:11:46;;;;;;;1.83;1.10;;;;;;;;;;484006;28;932;-72
2024/02/25 00:12:05;;;;;;;1.98;1.17;;;;;;;;;;481337;28;1637;-72
2024/02/25 00:12:23;;;;;;;1.95;1.15;;;;;;;;;;481001;28;1300;-72
2024/02/25 00:12:42;;;;;;;2.08;1.20;;;;;;;;;;481871;28;1388;-71
2024/02/25 00:13:00;;;;;;;2.33;1.20;;;;;;;;;;478131;28;1719;-72
2024/02/25 00:13:17;;;;;;;2.30;1.13;;;;;;;;;;479308;28;1133;-72
2024/02/25 00:13:33;;;;;;;2.10;1.10;;;;;;;;;;480910;28;1194;-72
2024/02/25 00:13:49;;;;;;;2.40;1.10;;;;;;;;;;477441;28;1466;-72
2024/02/25 00:14:07;;;;;;;1.92;1.10;;;;;;;;;;477065;28;930;-72
2024/02/25 00:14:28;;;;;;;1.65;1.10;;;;;;;;;;479447;28;1128;-72
2024/02/25 00:14:44;;;;;;;2.10;1.17;;;;;;;;;;481535;28;1229;-71
2024/02/25 00:15:00;;;;;;;2.28;1.00;;;;;;;;;;481769;28;1035;-72
2024/02/25 00:15:17;;;;;;;2.08;1.00;;;;;;;;;;481548;28;986;-71
2024/02/25 00:15:33;;;;;;;1.95;1.08;;;;;;;;;;481499;28;1550;-72
2024/02/25 00:15:49;;;;;;;2.05;1.00;;;;;;;;;;482952;28;1156;-71
2024/02/25 00:16:06;;;;;;;1.70;1.05;;;;;;;;;;481470;28;954;-72
2024/02/25 00:16:23;;;;;;;1.50;0.98;;;;;;;;;;479719;28;1181;-72
2024/02/25 00:16:42;;;;;;;1.85;0.98;;;;;;;;;;482919;28;1368;-72
2024/02/25 00:16:58;;;;;;;1.83;1.08;;;;;;;;;;480793;28;1172;-72
2024/02/25 00:17:14;;;;;;;1.95;0.90;;;;;;;;;;480614;28;1087;-71
2024/02/25 00:17:31;;;;;;;2.38;1.00;;;;;;;;;;481136;28;1081;-72
2024/02/25 00:17:50;;;;;;;1.63;1.00;;;;;;;;;;482438;28;1261;-72
2024/02/25 00:18:09;;;;;;;1.15;0.95;;;;;;;;;;480302;28;1478;-71
2024/02/25 00:18:26;;;;;;;1.95;1.10;;;;;;;;;;478507;28;1370;-73
2024/02/25 00:18:42;;;;;;;2.15;1.05;;;;;;;;;;479052;28;1192;-72
2024/02/25 00:18:58;;;;;;;2.25;1.08;;;;;;;;;;480427;28;1098;-72
2024/02/25 00:19:14;;;;;;;2.45;1.10;;;;;;;;;;480716;28;1102;-72
2024/02/25 00:19:30;;;;;;;2.05;1.10;;;;;;;;;;478521;28;1439;-72
2024/02/25 00:19:46;;;;;;;2.25;1.20;;;;;;;;;;483081;28;1313;-71
2024/02/25 00:20:03;;;;;;;2.08;1.10;;;;;;;;;;480661;28;1215;-72
2024/02/25 00:20:19;;;;;;;1.77;1.10;;;;;;;;;;481928;28;1074;-72
2024/02/25 00:20:35;;;;;;;1.83;1.00;;;;;;;;;;482164;28;1394;-72
2024/02/25 00:20:52;;;;;;;1.88;1.05;;;;;;;;;;480996;28;1001;-72
2024/02/25 00:21:12;;;;;;;2.90;1.17;;;;;;;;;;480775;28;1230;-72
2024/02/25 00:21:29;;;;;;;2.78;1.17;;;;;;;;;;480886;28;954;-72
2024/02/25 00:21:51;;;;;;;1.70;1.03;;;;;;;;;;483986;28;1259;-72
2024/02/25 00:22:07;;;;;;;4.55;1.40;;;;;;;;;;481781;28;1221;-73
2024/02/25 00:22:24;;;;;;;4.53;1.40;;;;;;;;;;481329;28;1025;-72
2024/02/25 00:22:40;;;;;;;1.70;1.00;;;;;;;;;;487708;28;1677;-72
2024/02/25 00:23:00;;;;;;;1.70;1.00;;;;;;;;;;484342;28;1077;-72
2024/02/25 00:23:18;;;;;;;1.55;0.95;;;;;;;;;;481178;28;1202;-73
2024/02/25 00:23:35;;;;;;;1.55;0.90;;;;;;;;;;482077;28;1394;-72
2024/02/25 00:23:51;;;;;;;1.73;1.00;;;;;;;;;;481250;28;1390;-72
2024/02/25 00:24:07;;;;;;;1.58;1.00;;;;;;;;;;482446;28;1297;-71
2024/02/25 00:24:23;;;;;;;1.65;0.85;;;;;;;;;;482141;28;1058;-72
2024/02/25 00:24:39;;;;;;;1.80;0.93;;;;;;;;;;481800;28;1390;-71
2024/02/25 00:24:56;;;;;;;1.55;1.00;;;;;;;;;;480790;28;937;-72
2024/02/25 00:25:12;;;;;;;1.70;0.90;;;;;;;;;;481172;28;1109;-72
2024/02/25 00:25:29;;;;;;;1.55;0.90;;;;;;;;;;481201;28;1450;-73
2024/02/25 00:25:45;;;;;;;1.95;1.00;;;;;;;;;;483614;28;1261;-73
2024/02/25 00:26:03;;;;;;;2.47;1.00;;;;;;;;;;481346;28;1315;-72
2024/02/25 00:26:28;;;;;;;1.88;1.00;;;;;;;;;;481655;28;1995;-72
2024/02/25 00:26:44;;;;;;;2.15;0.90;;;;;;;;;;480242;28;1353;-71
2024/02/25 00:27:03;;;;;;;2.35;1.00;;;;;;;;;;478840;28;1268;-72
2024/02/25 00:27:24;;;;;;;2.22;1.02;;;;;;;;;;480837;28;1236;-72
2024/02/25 00:28:08;;;;;;;2.10;1.02;;;;;;;;;;481319;28;1299;-72
2024/02/25 00:28:24;;;;;;;3.10;1.20;;;;;;;;;;479146;28;1330;-72
2024/02/25 00:28:51;;;;;;;;;;;;;;;;;;;;;
2024/02/25 00:29:14;;;;;;;2.03;1.00;;;;;;;;;;479384;28;1158;-73
2024/02/25 00:29:30;;;;;;;1.95;1.00;;;;;;;;;;481366;28;1101;-72
2024/02/25 00:29:46;;;;;;;1.85;1.00;;;;;;;;;;482083;28;1836;-73
2024/02/25 00:30:02;;;;;;;1.45;1.00;;;;;;;;;;480791;28;1412;-72
2024/02/25 00:30:18;;;;;;;1.52;1.02;;;;;;;;;;480830;28;1045;-72
2024/02/25 00:30:37;;;;;;;1.95;1.10;;;;;;;;;;484149;28;1168;-72
2024/02/25 00:30:53;;;;;;;2.03;1.10;;;;;;;;;;482416;28;1410;-72
2024/02/25 00:31:10;;;;;;;1.67;1.10;;;;;;;;;;482398;28;1410;-71
2024/02/25 00:31:26;;;;;;;1.52;1.00;;;;;;;;;;479765;28;1576;-72
2024/02/25 00:31:43;;;;;;;1.77;0.88;;;;;;;;;;481825;28;898;-72
2024/02/25 00:32:02;;;;;;;1.65;0.93;;;;;;;;;;480108;28;968;-72
2024/02/25 00:32:23;;;;;;;1.30;0.90;;;;;;;;;;479709;28;1593;-72
2024/02/25 00:32:39;;;;;;;1.52;0.90;;;;;;;;;;480359;28;1402;-72
2024/02/25 00:32:55;;;;;;;1.80;1.00;;;;;;;;;;480424;28;1153;-72
2024/02/25 00:33:15;;;;;;;1.65;0.90;;;;;;;;;;479789;28;1212;-72
2024/02/25 00:33:31;;;;;;;1.77;1.00;;;;;;;;;;479617;28;1641;-72
2024/02/25 00:33:47;;;;;;;1.70;0.90;;;;;;;;;;481764;28;1090;-72
2024/02/25 00:34:03;;;;;;;1.92;0.90;;;;;;;;;;480889;28;1237;-72
2024/02/25 00:34:20;;;;;;;1.75;1.00;;;;;;;;;;480322;28;1197;-72
2024/02/25 00:34:37;;;;;;;1.80;1.00;;;;;;;;;;481859;28;1292;-72
2024/02/25 00:34:55;;;;;;;1.73;1.00;;;;;;;;;;479339;28;1197;-73
2024/02/25 00:35:12;;;;;;;1.60;0.98;;;;;;;;;;479370;28;1428;-72
2024/02/25 00:35:27;;;;;;;1.65;0.90;;;;;;;;;;478202;28;1394;-72
2024/02/25 00:35:43;;;;;;;1.53;0.90;;;;;;;;;;480000;28;1266;-72
2024/02/25 00:36:03;;;;;;;1.60;0.90;;;;;;;;;;477046;28;1347;-71
2024/02/25 00:36:22;;;;;;;1.75;0.90;;;;;;;;;;479619;28;1336;-72
2024/02/25 00:36:38;;;;;;;1.60;0.90;;;;;;;;;;481438;28;1306;-72
2024/02/25 00:36:55;;;;;;;1.45;0.98;;;;;;;;;;477418;28;1222;-72
2024/02/25 00:37:14;;;;;;;1.75;1.00;;;;;;;;;;477148;28;1363;-72
2024/02/25 00:37:30;;;;;;;1.90;1.10;;;;;;;;;;480035;28;1274;-72
2024/02/25 00:37:46;;;;;;;1.95;1.20;;;;;;;;;;480594;28;1434;-72
2024/02/25 00:38:02;;;;;;;2.30;1.20;;;;;;;;;;474170;29;1306;-72
2024/02/25 00:38:22;;;;;;;2.17;1.00;;;;;;;;;;477114;28;1277;-72
2024/02/25 00:38:37;;;;;;;2.40;1.00;;;;;;;;;;478985;28;1380;-72
2024/02/25 00:39:18;;;;;;;2.08;1.00;;;;;;;;;;477908;28;1302;-72
2024/02/25 00:39:37;;;;;;;2.15;1.00;;;;;;;;;;482416;28;1359;-72
2024/02/25 00:39:54;;;;;;;2.53;1.00;;;;;;;;;;481683;28;929;-73
2024/02/25 00:40:13;;;;;;;2.80;1.10;;;;;;;;;;481526;28;1161;-72
2024/02/25 00:40:31;;;;;;;2.15;1.20;;;;;;;;;;482396;28;1375;-71
2024/02/25 00:40:47;;;;;;;2.15;1.10;;;;;;;;;;482992;28;1026;-71
2024/02/25 00:41:04;;;;;;;2.70;1.10;;;;;;;;;;481076;28;1569;-73
2024/02/25 00:41:21;;;;;;;2.83;1.10;;;;;;;;;;479477;28;1767;-71
2024/02/25 00:41:40;;;;;;;2.05;1.10;;;;;;;;;;482608;28;1101;-72
2024/02/25 00:41:58;;;;;;;2.00;1.20;;;;;;;;;;482010;28;1235;-72
2024/02/25 00:42:14;;;;;;;2.13;1.15;;;;;;;;;;481264;28;1130;-72
2024/02/25 00:42:33;;;;;;;1.50;0.90;;;;;;;;;;484853;28;1031;-72
2024/02/25 00:42:53;;;;;;;1.30;0.80;;;;;;;;;;484148;28;945;-73
2024/02/25 00:43:10;;;;;;;1.48;0.88;;;;;;;;;;482823;28;1339;-72
2024/02/25 00:43:26;;;;;;;1.80;1.05;;;;;;;;;;483526;28;1297;-72
2024/02/25 00:43:42;;;;;;;1.63;0.98;;;;;;;;;;483947;28;1106;-73
2024/02/25 00:43:59;;;;;;;2.05;1.00;;;;;;;;;;480403;28;1324;-71
2024/02/25 00:44:15;;;;;;;1.85;1.02;;;;;;;;;;478780;28;1406;-72
2024/02/25 00:44:34;;;;;;;2.25;1.10;;;;;;;;;;479171;28;997;-72
2024/02/25 00:44:50;;;;;;;2.35;1.00;;;;;;;;;;479328;28;1238;-72
2024/02/25 00:45:06;;;;;;;1.67;0.98;;;;;;;;;;477112;28;1498;-72
2024/02/25 00:45:25;;;;;;;1.77;0.98;;;;;;;;;;477343;28;1277;-72
2024/02/25 00:45:41;;;;;;;1.40;0.90;;;;;;;;;;478883;29;1142;-71
2024/02/25 00:45:57;;;;;;;1.83;0.98;;;;;;;;;;476836;28;1235;-72
2024/02/25 00:46:13;;;;;;;2.30;1.10;;;;;;;;;;477129;28;2027;-72
2024/02/25 00:46:29;;;;;;;1.98;1.20;;;;;;;;;;478154;28;989;-72
2024/02/25 00:46:46;;;;;;;1.80;1.10;;;;;;;;;;479836;28;1287;-72
2024/02/25 00:47:07;;;;;;;1.83;1.00;;;;;;;;;;480415;28;1261;-72
2024/02/25 00:47:24;;;;;;;1.92;0.90;;;;;;;;;;482426;28;1273;-70
2024/02/25 00:47:43;;;;;;;1.63;0.98;;;;;;;;;;483928;28;1418;-72
2024/02/25 00:47:59;;;;;;;1.60;1.08;;;;;;;;;;481016;28;1220;-72
2024/02/25 00:48:16;;;;;;;1.30;0.90;;;;;;;;;;482705;28;950;-71
2024/02/25 00:48:32;;;;;;;1.60;0.95;;;;;;;;;;484680;28;1160;-72
2024/02/25 00:48:47;;;;;;;1.80;1.00;;;;;;;;;;485687;28;1127;-72
2024/02/25 00:49:07;;;;;;;1.80;1.08;;;;;;;;;;483285;28;989;-71
2024/02/25 00:49:22;;;;;;;1.90;1.10;;;;;;;;;;480469;28;1405;-72
2024/02/25 00:49:41;;;;;;;1.63;1.00;;;;;;;;;;481871;28;1060;-72
2024/02/25 00:50:01;;;;;;;1.52;1.00;;;;;;;;;;479346;28;1379;-72
2024/02/25 00:50:18;;;;;;;1.63;1.10;;;;;;;;;;479347;28;1349;-72
2024/02/25 00:50:33;;;;;;;1.63;1.00;;;;;;;;;;478432;28;1138;-71
2024/02/25 00:50:49;;;;;;;2.33;1.08;;;;;;;;;;477937;28;976;-72
2024/02/25 00:51:05;;;;;;;2.47;1.20;;;;;;;;;;476251;29;1355;-71
2024/02/25 00:51:21;;;;;;;1.60;1.10;;;;;;;;;;477968;28;1305;-72
2024/02/25 00:51:37;;;;;;;1.42;1.00;;;;;;;;;;481035;28;986;-71
2024/02/25 00:51:53;;;;;;;1.45;0.95;;;;;;;;;;477725;28;1296;-72
2024/02/25 00:52:10;;;;;;;1.55;0.90;;;;;;;;;;478084;28;1297;-72
2024/02/25 00:52:27;;;;;;;2.13;1.05;;;;;;;;;;478983;28;1175;-72
2024/02/25 00:52:47;;;;;;;2.10;1.20;;;;;;;;;;482186;28;1590;-72
2024/02/25 00:53:03;;;;;;;1.55;1.10;;;;;;;;;;479457;28;1223;-73
2024/02/25 00:53:20;;;;;;;2.33;1.15;;;;;;;;;;479757;28;1179;-71
2024/02/25 00:53:35;;;;;;;2.30;1.10;;;;;;;;;;482132;28;1318;-72
2024/02/25 00:53:52;;;;;;;1.75;1.00;;;;;;;;;;480405;28;1267;-71
2024/02/25 00:54:08;;;;;;;1.83;1.10;;;;;;;;;;479108;28;1508;-72
2024/02/25 00:54:30;;;;;;;1.90;1.10;;;;;;;;;;477094;28;1140;-72
2024/02/25 00:54:48;;;;;;;1.40;1.00;;;;;;;;;;480562;28;1387;-71
2024/02/25 00:55:04;;;;;;;1.83;1.00;;;;;;;;;;474314;29;1160;-71
2024/02/25 00:55:21;;;;;;;2.28;1.13;;;;;;;;;;476238;29;1722;-72
2024/02/25 00:55:37;;;;;;;1.70;1.05;;;;;;;;;;479947;28;1253;-72
2024/02/25 00:55:55;;;;;;;1.40;1.02;;;;;;;;;;478381;28;1426;-72
2024/02/25 00:56:11;;;;;;;2.10;1.10;;;;;;;;;;478456;28;1082;-72
2024/02/25 00:56:30;;;;;;;1.90;1.00;;;;;;;;;;480369;28;1298;-72
2024/02/25 00:56:54;;;;;;;1.70;0.85;;;;;;;;;;480513;28;1109;-73
2024/02/25 00:57:11;;;;;;;1.67;0.98;;;;;;;;;;478763;28;1672;-72
2024/02/25 00:57:27;;;;;;;2.38;1.20;;;;;;;;;;477104;28;1514;-72
2024/02/25 00:57:44;;;;;;;2.80;1.25;;;;;;;;;;481866;28;938;-72
2024/02/25 00:58:00;;;;;;;2.47;1.10;;;;;;;;;;478130;28;1320;-71
2024/02/25 00:58:16;;;;;;;1.50;0.80;;;;;;;;;;477297;28;1450;-73
2024/02/25 00:58:35;;;;;;;1.35;0.80;;;;;;;;;;480634;28;1224;-71
2024/02/25 00:58:51;;;;;;;1.48;0.98;;;;;;;;;;482103;28;1353;-72
2024/02/25 00:59:07;;;;;;;1.67;1.00;;;;;;;;;;480227;28;1594;-72
2024/02/25 00:59:24;;;;;;;2.05;1.17;;;;;;;;;;478472;28;1253;-72
2024/02/25 00:59:40;;;;;;;1.92;1.10;;;;;;;;;;481587;28;1224;-72
2024/02/25 00:59:56;;;;;;;1.40;1.00;;;;;;;;;;480992;28;1049;-72
2024/02/25 01:00:13;;;;;;;1.55;1.08;;;;;;;;;;480844;28;1010;-72
2024/02/25 01:00:30;;;;;;;2.00;1.17;;;;;;;;;;481345;28;1099;-72
2024/02/25 01:00:46;;;;;;;1.85;1.10;;;;;;;;;;483172;28;1018;-72
2024/02/25 01:01:02;;;;;;;1.77;1.00;;;;;;;;;;481344;28;1475;-72
2024/02/25 01:01:18;;;;;;;1.92;1.10;;;;;;;;;;481050;28;1173;-71
2024/02/25 01:01:45;;;;;;;2.10;1.00;;;;;;;;;;483123;28;1313;-72
2024/02/25 01:02:01;;;;;;;2.13;1.10;;;;;;;;;;481422;28;1613;-72
2024/02/25 01:02:17;;;;;;;2.17;1.10;;;;;;;;;;481466;28;1117;-72
2024/02/25 01:02:33;;;;;;;1.67;1.00;;;;;;;;;;483421;28;1387;-72
2024/02/25 01:02:52;;;;;;;1.55;1.00;;;;;;;;;;480742;28;1224;-72
2024/02/25 01:03:08;;;;;;;1.67;0.93;;;;;;;;;;479365;28;1676;-72
2024/02/25 01:03:24;;;;;;;1.55;0.90;;;;;;;;;;482430;28;1027;-71
2024/02/25 01:03:45;;;;;;;1.88;0.90;;;;;;;;;;484326;28;1304;-72
2024/02/25 01:04:07;;;;;;;1.60;0.95;;;;;;;;;;480916;28;1596;-71
2024/02/25 01:04:23;;;;;;;2.15;1.00;;;;;;;;;;480624;28;1424;-71
2024/02/25 01:04:39;;;;;;;2.15;1.00;;;;;;;;;;481324;28;1456;-72
2024/02/25 01:04:55;;;;;;;1.90;1.00;;;;;;;;;;479610;28;1700;-72
2024/02/25 01:05:12;;;;;;;2.45;1.08;;;;;;;;;;479976;28;1330;-72
2024/02/25 01:05:34;;;;;;;2.78;1.10;;;;;;;;;;481046;28;1513;-72
2024/02/25 01:05:50;;;;;;;2.42;1.10;;;;;;;;;;480246;28;1239;-72
2024/02/25 01:06:07;;;;;;;2.25;1.08;;;;;;;;;;480303;28;1446;-72
2024/02/25 01:06:23;;;;;;;2.25;1.20;;;;;;;;;;477607;28;1976;-72
2024/02/25 01:06:41;;;;;;;1.88;1.10;;;;;;;;;;481503;28;1180;-72
2024/02/25 01:06:57;;;;;;;1.90;1.10;;;;;;;;;;476701;29;1216;-72
2024/02/25 01:07:13;;;;;;;1.60;1.00;;;;;;;;;;477966;28;1369;-72
2024/02/25 01:07:32;;;;;;;1.33;0.82;;;;;;;;;;480614;28;1204;-72
2024/02/25 01:07:51;;;;;;;1.33;0.90;;;;;;;;;;482969;28;1100;-72
2024/02/25 01:08:16;;;;;;;1.80;0.93;;;;;;;;;;479878;28;1054;-72
2024/02/25 01:08:33;;;;;;;2.20;1.08;;;;;;;;;;480952;28;1240;-72
2024/02/25 01:08:53;;;;;;;1.55;0.95;;;;;;;;;;481840;28;1409;-72
2024/02/25 01:09:10;;;;;;;1.88;1.02;;;;;;;;;;482127;28;1418;-72
2024/02/25 01:09:26;;;;;;;2.00;0.93;;;;;;;;;;480966;28;1253;-72
2024/02/25 01:09:43;;;;;;;1.65;1.00;;;;;;;;;;482681;28;1161;-72
2024/02/25 01:09:59;;;;;;;1.90;1.00;;;;;;;;;;481578;28;1161;-72
2024/02/25 01:10:15;;;;;;;1.70;0.90;;;;;;;;;;480366;28;1210;-72
2024/02/25 01:10:31;;;;;;;1.25;0.90;;;;;;;;;;479109;28;1316;-72
2024/02/25 01:10:48;;;;;;;1.70;1.00;;;;;;;;;;479590;28;1176;-72
2024/02/25 01:11:07;;;;;;;2.05;0.90;;;;;;;;;;480528;28;1242;-71
2024/02/25 01:11:24;;;;;;;2.85;1.00;;;;;;;;;;479266;28;1324;-71
2024/02/25 01:11:39;;;;;;;1.80;1.00;;;;;;;;;;482227;28;1136;-71
2024/02/25 01:11:57;;;;;;;1.50;1.00;;;;;;;;;;478395;28;1215;-72
2024/02/25 01:12:13;;;;;;;1.42;1.00;;;;;;;;;;479169;28;1435;-72
2024/02/25 01:12:35;;;;;;;1.45;0.90;;;;;;;;;;478379;28;1277;-72
2024/02/25 01:12:52;;;;;;;1.85;0.95;;;;;;;;;;482010;28;1435;-72
2024/02/25 01:13:08;;;;;;;2.05;1.08;;;;;;;;;;477767;28;1218;-71
2024/02/25 01:13:27;;;;;;;1.80;1.10;;;;;;;;;;478862;28;1493;-72
2024/02/25 01:13:47;;;;;;;1.63;1.00;;;;;;;;;;478719;28;1301;-72
2024/02/25 01:14:04;;;;;;;1.52;0.90;;;;;;;;;;478833;28;957;-72
2024/02/25 01:14:21;;;;;;;1.85;1.00;;;;;;;;;;478284;28;1138;-72
2024/02/25 01:14:38;;;;;;;2.40;1.17;;;;;;;;;;480722;28;1023;-71
2024/02/25 01:14:53;;;;;;;2.15;1.10;;;;;;;;;;480123;28;1611;-71
2024/02/25 01:15:10;;;;;;;1.77;1.10;;;;;;;;;;480313;28;1133;-73
2024/02/25 01:15:30;;;;;;;1.50;1.00;;;;;;;;;;480698;28;1382;-72
2024/02/25 01:15:46;;;;;;;2.35;1.10;;;;;;;;;;483335;28;1059;-71
2024/02/25 01:16:03;;;;;;;3.13;1.13;;;;;;;;;;480663;28;1304;-72
2024/02/25 01:16:19;;;;;;;2.33;0.93;;;;;;;;;;480189;28;1284;-71
2024/02/25 01:16:37;;;;;;;1.42;0.80;;;;;;;;;;479706;28;1210;-72
2024/02/25 01:16:56;;;;;;;1.27;0.70;;;;;;;;;;476230;29;1309;-72
2024/02/25 01:17:13;;;;;;;1.80;0.90;;;;;;;;;;478246;28;1246;-72
2024/02/25 01:17:28;;;;;;;1.52;0.90;;;;;;;;;;476617;29;1306;-72
2024/02/25 01:17:45;;;;;;;1.70;0.98;;;;;;;;;;476817;29;1159;-71
2024/02/25 01:18:05;;;;;;;1.88;1.00;;;;;;;;;;476764;29;1181;-71
2024/02/25 01:18:21;;;;;;;2.75;1.00;;;;;;;;;;477176;29;1059;-72
2024/02/25 01:18:40;;;;;;;3.95;1.00;;;;;;;;;;479489;28;1023;-71
2024/02/25 01:18:56;;;;;;;1.63;0.95;;;;;;;;;;480676;28;1587;-72
2024/02/25 01:19:12;;;;;;;1.33;0.82;;;;;;;;;;480574;28;1408;-72
2024/02/25 01:19:29;;;;;;;1.42;0.90;;;;;;;;;;479702;28;1405;-71
2024/02/25 01:19:45;;;;;;;1.65;1.10;;;;;;;;;;481860;28;1245;-72
2024/02/25 01:20:01;;;;;;;2.05;1.10;;;;;;;;;;480602;28;1359;-73
2024/02/25 01:20:17;;;;;;;1.83;0.90;;;;;;;;;;480738;28;1237;-72
2024/02/25 01:20:33;;;;;;;1.35;0.85;;;;;;;;;;481061;28;1274;-72
2024/02/25 01:20:50;;;;;;;1.38;0.98;;;;;;;;;;481113;28;1538;-72
2024/02/25 01:21:06;;;;;;;1.33;1.00;;;;;;;;;;476840;28;1159;-72
2024/02/25 01:21:23;;;;;;;1.33;0.98;;;;;;;;;;480811;28;1265;-72
2024/02/25 01:21:39;;;;;;;1.50;1.10;;;;;;;;;;485309;28;1097;-72
2024/02/25 01:21:55;;;;;;;1.85;1.10;;;;;;;;;;479897;28;1747;-71
2024/02/25 01:22:12;;;;;;;1.90;1.10;;;;;;;;;;479610;28;1255;-72
2024/02/25 01:22:28;;;;;;;1.95;1.00;;;;;;;;;;481074;28;1232;-72
2024/02/25 01:22:44;;;;;;;2.08;1.00;;;;;;;;;;483671;28;1178;-72
2024/02/25 01:23:00;;;;;;;1.88;1.00;;;;;;;;;;481480;28;1448;-71
2024/02/25 01:23:16;;;;;;;1.70;1.00;;;;;;;;;;478264;28;1201;-71
2024/02/25 01:23:32;;;;;;;1.88;0.90;;;;;;;;;;479868;28;1223;-72
2024/02/25 01:23:51;;;;;;;1.55;0.90;;;;;;;;;;478860;28;1313;-71
2024/02/25 01:24:10;;;;;;;1.70;0.90;;;;;;;;;;478163;28;1117;-72
2024/02/25 01:24:30;;;;;;;1.60;0.90;;;;;;;;;;478694;28;1119;-71
2024/02/25 01:24:49;;;;;;;1.48;0.90;;;;;;;;;;480554;28;1153;-72
2024/02/25 01:25:05;;;;;;;1.25;0.90;;;;;;;;;;476879;28;1361;-71
2024/02/25 01:25:22;;;;;;;1.52;0.95;;;;;;;;;;480144;28;1261;-71
2024/02/25 01:25:37;;;;;;;1.70;1.00;;;;;;;;;;483664;28;1118;-71
2024/02/25 01:25:54;;;;;;;1.33;0.90;;;;;;;;;;481225;28;1281;-72
2024/02/25 01:26:13;;;;;;;1.38;0.80;;;;;;;;;;478740;28;1099;-71
2024/02/25 01:26:30;;;;;;;1.88;0.80;;;;;;;;;;479979;28;1065;-72
2024/02/25 01:26:46;;;;;;;2.17;1.00;;;;;;;;;;481015;28;1205;-72
2024/02/25 01:27:03;;;;;;;2.13;1.00;;;;;;;;;;477741;28;1685;-72
2024/02/25 01:27:19;;;;;;;1.43;1.00;;;;;;;;;;477342;28;958;-72
2024/02/25 01:27:44;;;;;;;1.42;0.90;;;;;;;;;;477747;29;1203;-72
2024/02/25 01:28:01;;;;;;;1.67;0.80;;;;;;;;;;477006;28;1305;-71
2024/02/25 01:28:21;;;;;;;1.63;0.80;;;;;;;;;;478957;28;1247;-72
2024/02/25 01:28:38;;;;;;;1.73;0.80;;;;;;;;;;482254;28;1495;-73
2024/02/25 01:28:58;;;;;;;1.88;0.80;;;;;;;;;;480200;28;1043;-72
2024/02/25 01:29:14;;;;;;;1.75;0.90;;;;;;;;;;478150;28;1322;-73
2024/02/25 01:29:30;;;;;;;1.52;0.80;;;;;;;;;;477835;28;1575;-72
2024/02/25 01:29:46;;;;;;;1.90;0.90;;;;;;;;;;478426;28;1487;-72
2024/02/25 01:30:10;;;;;;;2.00;0.93;;;;;;;;;;479904;28;978;-72
2024/02/25 01:30:26;;;;;;;1.75;0.90;;;;;;;;;;479738;28;914;-72
2024/02/25 01:30:45;;;;;;;2.42;0.90;;;;;;;;;;484504;28;1078;-72
2024/02/25 01:31:05;;;;;;;2.50;1.00;;;;;;;;;;481011;28;1202;-72
2024/02/25 01:31:25;;;;;;;1.60;0.82;;;;;;;;;;482179;28;1113;-72
2024/02/25 01:31:48;;;;;;;1.63;0.90;;;;;;;;;;485465;28;1073;-72
2024/02/25 01:32:08;;;;;;;1.50;0.90;;;;;;;;;;480388;28;1270;-72
2024/02/25 01:32:24;;;;;;;1.30;0.80;;;;;;;;;;478950;28;1247;-72
2024/02/25 01:32:40;;;;;;;1.50;0.80;;;;;;;;;;478201;29;1268;-72
2024/02/25 01:32:56;;;;;;;1.67;0.90;;;;;;;;;;479388;28;1222;-71
2024/02/25 01:33:14;;;;;;;1.55;1.00;;;;;;;;;;478068;28;1079;-72
2024/02/25 01:33:30;;;;;;;2.08;0.90;;;;;;;;;;478951;28;1328;-73
2024/02/25 01:33:46;;;;;;;2.03;0.90;;;;;;;;;;482862;28;973;-72
2024/02/25 01:34:05;;;;;;;1.60;1.00;;;;;;;;;;481199;28;1721;-72
2024/02/25 01:34:28;;;;;;;1.88;1.00;;;;;;;;;;479985;28;1397;-72
2024/02/25 01:34:44;;;;;;;2.13;0.98;;;;;;;;;;482321;28;1846;-71
2024/02/25 01:35:21;;;;;;;1.90;1.00;;;;;;;;;;477600;28;1205;-72
2024/02/25 01:35:37;;;;;;;1.85;0.90;;;;;;;;;;477425;28;1106;-73
2024/02/25 01:35:54;;;;;;;1.85;1.00;;;;;;;;;;476670;28;1319;-71
2024/02/25 01:36:13;;;;;;;1.90;1.17;;;;;;;;;;475992;28;1219;-72
2024/02/25 01:36:29;;;;;;;1.50;1.00;;;;;;;;;;478110;28;1011;-72
2024/02/25 01:36:54;;;;;;;1.83;1.10;;;;;;;;;;478880;28;1036;-72
2024/02/25 01:37:11;;;;;;;2.70;1.00;;;;;;;;;;477033;28;996;-72
2024/02/25 01:37:27;;;;;;;3.15;0.90;;;;;;;;;;478069;28;1015;-72
2024/02/25 01:37:49;;;;;;;2.75;0.98;;;;;;;;;;484022;28;1337;-72
2024/02/25 01:38:05;;;;;;;1.42;1.00;;;;;;;;;;481179;28;1851;-72
2024/02/25 01:38:21;;;;;;;1.42;0.88;;;;;;;;;;481144;28;1374;-72
2024/02/25 01:38:39;;;;;;;1.70;0.80;;;;;;;;;;485256;28;1058;-72
2024/02/25 01:39:03;;;;;;;1.45;0.88;;;;;;;;;;480236;28;1280;-72
2024/02/25 01:39:22;;;;;;;1.70;0.90;;;;;;;;;;479662;28;910;-71
2024/02/25 01:39:39;;;;;;;1.67;0.80;;;;;;;;;;482983;28;1220;-72
2024/02/25 01:39:55;;;;;;;1.60;0.80;;;;;;;;;;480524;28;1467;-73
2024/02/25 01:40:12;;;;;;;1.40;0.80;;;;;;;;;;478349;28;1478;-72
2024/02/25 01:40:27;;;;;;;1.65;0.80;;;;;;;;;;479546;28;1071;-73
2024/02/25 01:40:49;;;;;;;1.90;0.93;;;;;;;;;;483658;28;1084;-72
2024/02/25 01:41:05;;;;;;;1.67;1.00;;;;;;;;;;480343;28;1365;-72
2024/02/25 01:41:21;;;;;;;2.83;0.90;;;;;;;;;;481097;28;1223;-72
2024/02/25 01:41:37;;;;;;;2.95;1.00;;;;;;;;;;486076;28;1263;-72
2024/02/25 01:41:57;;;;;;;2.20;1.08;;;;;;;;;;483129;28;1422;-72
2024/02/25 01:42:19;;;;;;;1.98;1.05;;;;;;;;;;480477;28;1317;-72
2024/02/25 01:42:37;;;;;;;2.22;1.00;;;;;;;;;;482948;28;1333;-72
2024/02/25 01:43:33;;;;;;;1.92;0.80;;;;;;;;;;479340;28;1088;-71
2024/02/25 01:43:49;;;;;;;1.85;1.00;;;;;;;;;;482893;28;1150;-73
2024/02/25 01:44:54;;;;;;;;;;;;;;;;;;;;;
2024/02/25 01:45:11;;;;;;;1.92;0.95;;;;;;;;;;475716;29;1079;-72
2024/02/25 01:45:35;;;;;;;2.00;1.00;;;;;;;;;;475693;29;1455;-71
2024/02/25 01:45:52;;;;;;;1.80;0.90;;;;;;;;;;483577;28;1891;-72
2024/02/25 01:46:08;;;;;;;2.05;0.88;;;;;;;;;;481557;28;1386;-72
2024/02/25 01:46:25;;;;;;;1.75;0.90;;;;;;;;;;481273;28;1952;-72
2024/02/25 01:46:50;;;;;;;1.42;0.82;;;;;;;;;;485330;28;1706;-72
2024/02/25 01:47:08;;;;;;;1.63;0.88;;;;;;;;;;481636;28;1558;-72
2024/02/25 01:47:30;;;;;;;2.97;1.00;;;;;;;;;;483564;28;1439;-72
2024/02/25 01:47:46;;;;;;;2.53;1.02;;;;;;;;;;485421;28;1964;-72
2024/02/25 01:48:07;;;;;;;1.88;0.98;;;;;;;;;;482832;28;1267;-72
2024/02/25 01:48:26;;;;;;;1.40;0.90;;;;;;;;;;483207;28;1077;-73
2024/02/25 01:48:43;;;;;;;1.50;0.90;;;;;;;;;;484803;28;1221;-72
2024/02/25 01:49:09;;;;;;;1.38;0.88;;;;;;;;;;479515;28;1265;-71
2024/02/25 01:49:30;;;;;;;1.52;0.90;;;;;;;;;;477836;28;1223;-72
2024/02/25 01:49:47;;;;;;;1.65;0.93;;;;;;;;;;478162;28;1246;-72
2024/02/25 01:50:04;;;;;;;1.35;0.82;;;;;;;;;;479806;28;1020;-71
2024/02/25 01:50:40;;;;;;;1.20;0.80;;;;;;;;;;478870;28;1243;-72
2024/02/25 01:50:57;;;;;;;1.50;1.00;;;;;;;;;;479184;28;1518;-72
2024/02/25 01:51:14;;;;;;;1.77;0.90;;;;;;;;;;479308;28;1328;-72